Flight Track Log - Related Links

Times and Time Zones

All times are in EDT time to prevent confusion due to time zone crossing. See the TAM3746 flight status page for this flight to view local times or setup timezone preferences in your user account.

Time Position Orientation Groundspeed Altitude Reporting Facility
EDT Latitude Longitude Course Direction KTS MPH feet Rate Location/Type
Thu 10:23:10 PM -23.4270 -46.4130 133° Southeast 167 192 4,200  Level FlightAware ADS-B
Thu 10:23:18 PM -23.4340 -46.4100 159° South 171 197 4,400 1,385 Climbing FlightAware ADS-B
Thu 10:23:23 PM -23.4390 -46.4100 180° South 177 204 4,500 1,154 Climbing FlightAware ADS-B
Thu 10:23:44 PM -23.4540 -46.4160 200° South 194 223 4,900 1,154 Climbing FlightAware ADS-B
Thu 10:23:49 PM -23.4580 -46.4190 215° Southwest 189 217 5,000 1,600 Climbing FlightAware ADS-B
Thu 10:23:59 PM -23.4650 -46.4270 226° Southwest 192 221 5,300 1,000 Climbing FlightAware ADS-B
Thu 10:24:13 PM -23.4740 -46.4390 231° Southwest 210 242 5,400 706 Climbing FlightAware ADS-B
Thu 10:24:33 PM -23.4850 -46.4570 236° Southwest 225 259 5,700 857 Climbing FlightAware ADS-B
Thu 10:24:48 PM -23.4860 -46.4750 267° West 236 272 5,900 878 Climbing FlightAware ADS-B
Thu 10:25:14 PM -23.4860 -46.5070 270° West 260 299 6,300 1,286 Climbing FlightAware ADS-B
Thu 10:25:44 PM -23.4870 -46.5500 269° West 282 325 7,100 1,837 Climbing FlightAware ADS-B
Thu 10:26:03 PM -23.4880 -46.5770 268° West 286 329 7,800 2,400 Climbing FlightAware ADS-B
Thu 10:26:19 PM -23.4890 -46.6000 267° West 285 328 8,500 2,432 Climbing FlightAware ADS-B
Thu 10:26:40 PM -23.4900 -46.6300 268° West 286 329 9,300 2,250 Climbing FlightAware ADS-B
Thu 10:26:59 PM -23.4900 -46.6580 270° West 291 335 10,000 1,636 Climbing FlightAware ADS-B
Thu 10:27:35 PM -23.4920 -46.7120 268° West 312 359 10,800 1,151 Climbing FlightAware ADS-B
Thu 10:28:12 PM -23.4930 -46.7730 269° West 342 394 11,400 1,412 Climbing FlightAware ADS-B
Thu 10:28:43 PM -23.4950 -46.8280 268° West 350 403 12,400 2,000 Climbing FlightAware ADS-B
Thu 10:29:21 PM -23.4960 -46.8950 269° West 352 405 13,700 2,027 Climbing FlightAware ADS-B
Thu 10:29:57 PM -23.4980 -46.9580 268° West 356 410 14,900 2,118 Climbing FlightAware ADS-B
Thu 10:30:29 PM -23.4990 -47.0170 269° West 353 406 16,100 1,971 Climbing FlightAware ADS-B
Thu 10:31:07 PM -23.5010 -47.0840 268° West 357 411 17,200 1,308 Climbing FlightAware ADS-B
Thu 10:31:47 PM -23.5010 -47.1280 270° West 361 415 17,800 1,059 Climbing FlightAware ADS-B
Thu 10:31:58 PM -23.4970 -47.1520 280° West 364 419 18,100 1,714 Climbing FlightAware ADS-B
Thu 10:32:22 PM -23.4770 -47.1900 300° West 370 426 18,800 1,579 Climbing FlightAware ADS-B
Thu 10:32:55 PM -23.4440 -47.2430 304° West 374 430 19,600 1,565 Climbing FlightAware ADS-B
Thu 10:33:31 PM -23.4110 -47.2990 303° West 373 429 20,600 1,478 Climbing FlightAware ADS-B
Thu 10:34:04 PM -23.3810 -47.3490 303° West 375 432 21,300 1,200 Climbing FlightAware ADS-B
Thu 10:34:36 PM -23.3500 -47.4020 302° West 382 440 21,900 1,315 Climbing FlightAware ADS-B
Thu 10:35:17 PM -23.3090 -47.4680 304° West 384 442 22,900 1,315 Climbing FlightAware ADS-B
Thu 10:35:49 PM -23.2790 -47.5190 303° West 386 444 23,500 1,200 Climbing FlightAware ADS-B
Thu 10:36:22 PM -23.2480 -47.5720 302° West 386 444 24,200 1,151 Climbing FlightAware ADS-B
Thu 10:37:02 PM -23.2100 -47.6350 303° West 389 448 24,900 1,068 Climbing FlightAware ADS-B
Thu 10:37:35 PM -23.1740 -47.6940 304° West 393 452 25,500 986 Climbing FlightAware ADS-B
Thu 10:38:15 PM -23.1350 -47.7590 303° West 397 457 26,100 889 Climbing FlightAware ADS-B
Thu 10:38:56 PM -23.0960 -47.8240 303° West 402 463 26,700 822 Climbing FlightAware ADS-B
Thu 10:39:28 PM -23.0620 -47.8800 303° West 406 467 27,100 738 Climbing FlightAware ADS-B
Thu 10:40:01 PM -23.0290 -47.9360 303° West 410 472 27,500 783 Climbing FlightAware ADS-B
Thu 10:40:37 PM -22.9900 -48.0000 303° West 414 476 28,000 783 Climbing FlightAware ADS-B
Thu 10:41:10 PM -22.9550 -48.0580 303° West 420 483 28,400 696 Climbing FlightAware ADS-B
Thu 10:41:46 PM -22.9150 -48.1240 303° West 424 488 28,800 706 Climbing FlightAware ADS-B
Thu 10:42:18 PM -22.8820 -48.1800 303° West 426 490 29,200 868 Climbing FlightAware ADS-B
Thu 10:43:02 PM -22.8330 -48.2590 304° West 426 490 29,900 935 Climbing FlightAware ADS-B
Thu 10:43:35 PM -22.8000 -48.3130 304° West 425 489 30,400 904 Climbing FlightAware ADS-B
Thu 10:44:15 PM -22.7600 -48.3800 303° West 424 488 31,000 1,077 Climbing FlightAware ADS-B
Thu 10:44:53 PM -22.7000 -48.4770 304° West 421 484 31,800 1,114 Climbing FlightAware ADS-B
Thu 10:45:25 PM -22.6630 -48.5380 303° West 422 486 32,300 818 Climbing FlightAware ADS-B
Thu 10:45:59 PM -22.6290 -48.5940 303° West 420 483 32,700 667 Climbing FlightAware ADS-B
Thu 10:46:37 PM -22.5860 -48.6640 304° West 421 484 33,100 730 Climbing FlightAware ADS-B
Thu 10:47:13 PM -22.5470 -48.7280 303° West 419 482 33,600 706 Climbing FlightAware ADS-B
Thu 10:47:45 PM -22.5130 -48.7840 303° West 420 483 33,900 343 Climbing FlightAware ADS-B
Thu 10:48:23 PM -22.4720 -48.8490 304° West 421 484 34,000 81 Climbing FlightAware ADS-B
Thu 10:48:59 PM -22.4330 -48.9140 303° West 420 483 34,000  Level FlightAware ADS-B
Thu 10:49:31 PM -22.3990 -48.9700 303° West 420 483 34,000  Level FlightAware ADS-B
Thu 10:50:07 PM -22.3610 -49.0310 304° West 419 482 34,000  Level FlightAware ADS-B
Thu 10:50:43 PM -22.3200 -49.0950 305° West 420 483 34,000  Level FlightAware ADS-B
Thu 10:51:15 PM -22.2810 -49.1450 310° West 426 490 34,000  Level FlightAware ADS-B
Thu 10:51:51 PM -22.2310 -49.2000 314° West 427 491 34,000  Level FlightAware ADS-B
Thu 10:52:27 PM -22.1820 -49.2550 314° West 427 491 34,000  Level FlightAware ADS-B
Thu 10:53:03 PM -22.1310 -49.3120 314° West 427 491 34,000  Level FlightAware ADS-B
Thu 10:53:35 PM -22.0870 -49.3610 314° West 427 491 34,000  Level FlightAware ADS-B
Thu 10:54:13 PM -22.0350 -49.4190 314° West 425 489 34,000  Level FlightAware ADS-B
Thu 10:54:49 PM -21.9860 -49.4730 314° West 426 490 34,000  Level FlightAware ADS-B
Thu 10:55:21 PM -21.9420 -49.5230 313° West 427 491 34,000  Level FlightAware ADS-B
Thu 10:55:57 PM -21.8930 -49.5760 315° West 431 496 34,000  Level FlightAware ADS-B
Thu 10:56:33 PM -21.8370 -49.6290 319° Northwest 436 502 34,000  Level FlightAware ADS-B
Thu 10:57:05 PM -21.7890 -49.6750 318° Northwest 437 503 34,000  Level FlightAware ADS-B
Thu 10:57:41 PM -21.7340 -49.7280 318° Northwest 438 504 34,000  Level FlightAware ADS-B
Thu 10:58:17 PM -21.6800 -49.7800 318° Northwest 438 504 34,000  Level FlightAware ADS-B
Thu 10:58:51 PM -21.6290 -49.8290 318° Northwest 440 506 34,000  Level FlightAware ADS-B
Thu 10:59:26 PM -21.5760 -49.8800 318° Northwest 440 506 34,000  Level FlightAware ADS-B
Thu 11:00:01 PM -21.5230 -49.9320 318° Northwest 438 504 34,000  Level FlightAware ADS-B
Thu 11:00:37 PM -21.4670 -49.9850 319° Northwest 439 505 34,000  Level FlightAware ADS-B
Thu 11:01:13 PM -21.4140 -50.0370 318° Northwest 439 505 34,000  Level FlightAware ADS-B
Thu 11:01:45 PM -21.3650 -50.0840 318° Northwest 440 506 34,000  Level FlightAware ADS-B
Thu 11:02:21 PM -21.3110 -50.1360 318° Northwest 440 506 34,000  Level FlightAware ADS-B
Thu 11:02:57 PM -21.2570 -50.1880 318° Northwest 439 505 34,000  Level FlightAware ADS-B
Thu 11:03:33 PM -21.2030 -50.2390 319° Northwest 440 506 34,000  Level FlightAware ADS-B
Thu 11:04:07 PM -21.1480 -50.2880 320° Northwest 446 513 34,000  Level FlightAware ADS-B
Thu 11:04:41 PM -21.0890 -50.3260 329° Northwest 449 517 34,000  Level FlightAware ADS-B
Thu 11:05:19 PM -21.0180 -50.3700 330° Northwest 449 517 34,000  Level FlightAware ADS-B
Thu 11:05:51 PM -20.9660 -50.4030 329° Northwest 448 516 34,000  Level FlightAware ADS-B
Thu 11:06:27 PM -20.9050 -50.4420 329° Northwest 449 517 34,000  Level FlightAware ADS-B
Thu 11:07:00 PM -20.8440 -50.4800 330° Northwest 449 517 34,000  Level FlightAware ADS-B
Thu 11:07:36 PM -20.7810 -50.5200 329° Northwest 447 514 34,000  Level FlightAware ADS-B
Thu 11:08:18 PM -20.7020 -50.5700 329° Northwest 447 514 34,000  Level FlightAware ADS-B
Thu 11:08:53 PM -20.6400 -50.6090 330° Northwest 447 514 34,000  Level FlightAware ADS-B
Thu 11:09:28 PM -20.5810 -50.6460 330° Northwest 447 514 34,000  Level FlightAware ADS-B
Thu 11:10:05 PM -20.5080 -50.6920 329° Northwest 447 514 34,000  Level FlightAware ADS-B
Thu 11:10:41 PM -20.4430 -50.7330 329° Northwest 447 514 34,000  Level FlightAware ADS-B
Thu 11:11:21 PM -20.3740 -50.7760 330° Northwest 448 516 34,000  Level FlightAware ADS-B
Thu 11:11:58 PM -20.3080 -50.8170 330° Northwest 449 517 34,000  Level FlightAware ADS-B
Thu 11:12:33 PM -20.2450 -50.8570 329° Northwest 450 518 34,000  Level FlightAware ADS-B
Thu 11:13:05 PM -20.1880 -50.8930 329° Northwest 451 519 34,000  Level FlightAware ADS-B
Thu 11:13:51 PM -20.1080 -50.9430 330° Northwest 453 521 34,000  Level FlightAware ADS-B
Thu 11:14:22 PM -20.0510 -50.9790 329° Northwest 453 521 34,000  Level FlightAware ADS-B
Thu 11:15:01 PM -19.9910 -51.0170 329° Northwest 453 521 34,000  Level FlightAware ADS-B
Thu 11:15:37 PM -19.9360 -51.0520 329° Northwest 453 521 34,000  Level FlightAware ADS-B
Thu 11:16:13 PM -19.8810 -51.0870 329° Northwest 453 521 34,000  Level FlightAware ADS-B
Thu 11:16:49 PM -19.8260 -51.1220 329° Northwest 453 521 34,000  Level FlightAware ADS-B
Thu 11:17:25 PM -19.7710 -51.1570 329° Northwest 453 521 34,000  Level FlightAware ADS-B
Thu 11:18:01 PM -19.7160 -51.1920 329° Northwest 453 521 34,000  Level FlightAware ADS-B
Thu 11:18:37 PM -19.6610 -51.2270 329° Northwest 453 521 34,000  Level FlightAware ADS-B
Thu 11:19:14 PM -19.6050 -51.2630 329° Northwest 453 521 34,000  Level FlightAware ADS-B
Thu 11:19:50 PM -19.5500 -51.2980 329° Northwest 453 521 34,000  Level FlightAware ADS-B
Thu 11:20:27 PM -19.4930 -51.3340 329° Northwest 453 521 34,000  Level FlightAware ADS-B
Thu 11:21:04 PM -19.4370 -51.3700 329° Northwest 453 521 34,000  Level FlightAware ADS-B
Thu 11:21:40 PM -19.3820 -51.4050 329° Northwest 453 521 34,000  Level FlightAware ADS-B
Thu 11:22:17 PM -19.3250 -51.4410 329° Northwest 453 521 34,000  Level FlightAware ADS-B
Thu 11:22:55 PM -19.2670 -51.4780 329° Northwest 453 521 34,000  Level FlightAware ADS-B
Thu 11:23:31 PM -19.2120 -51.5130 329° Northwest 453 521 34,000  Level FlightAware ADS-B
Thu 11:24:07 PM -19.1570 -51.5480 329° Northwest 453 521 34,000 -174 Level FlightAware ADS-B
Thu 11:26:00 PM -18.9741 -51.6522 332° Northwest  Level Estimated
Thu 11:27:00 PM -18.8770 -51.7074 332° Northwest  Level Estimated
Thu 11:28:00 PM -18.7799 -51.7625 332° Northwest  Level Estimated
Thu 11:29:00 PM -18.6827 -51.8176 332° Northwest  Level Estimated
Thu 11:30:00 PM -18.5856 -51.8726 332° Northwest  Level Estimated
Thu 11:31:00 PM -18.4884 -51.9276 332° Northwest  Level Estimated
Thu 11:32:00 PM -18.3912 -51.9825 332° Northwest  Level Estimated
Thu 11:33:00 PM -18.2940 -52.0373 332° Northwest  Level Estimated
Thu 11:34:00 PM -18.1967 -52.0921 332° Northwest  Level Estimated
Thu 11:35:00 PM -18.0995 -52.1468 332° Northwest  Level Estimated
Thu 11:36:00 PM -18.0022 -52.2015 332° Northwest  Level Estimated
Thu 11:37:00 PM -17.9049 -52.2561 332° Northwest  Level Estimated
Thu 11:38:00 PM -17.8076 -52.3106 332° Northwest  Level Estimated
Thu 11:39:00 PM -17.7103 -52.3651 332° Northwest  Level Estimated
Thu 11:40:00 PM -17.6173 -52.4171 332° Northwest  Level Estimated
Thu 11:41:00 PM -17.5242 -52.4691 332° Northwest  Level Estimated
Thu 11:42:00 PM -17.4310 -52.5210 332° Northwest  Level Estimated
Thu 11:43:00 PM -17.3379 -52.5729 332° Northwest  Level Estimated
Thu 11:44:00 PM -17.2448 -52.6248 332° Northwest  Level Estimated
Thu 11:45:00 PM -17.1516 -52.6766 332° Northwest  Level Estimated
Thu 11:46:00 PM -17.0584 -52.7283 332° Northwest  Level Estimated
Thu 11:47:00 PM -16.9653 -52.7800 332° Northwest  Level Estimated
Thu 11:48:00 PM -16.8720 -52.8316 332° Northwest  Level Estimated
Thu 11:49:00 PM -16.7788 -52.8832 332° Northwest  Level Estimated
Thu 11:50:00 PM -16.6856 -52.9347 332° Northwest  Level Estimated
Thu 11:51:00 PM -16.5924 -52.9862 332° Northwest  Level Estimated
Thu 11:52:00 PM -16.4991 -53.0376 332° Northwest  Level Estimated
Thu 11:53:00 PM -16.4059 -53.0890 332° Northwest  Level Estimated
Thu 11:54:00 PM -16.3126 -53.1403 332° Northwest  Level Estimated
Thu 11:55:00 PM -16.2193 -53.1916 332° Northwest  Level Estimated
Thu 11:56:00 PM -16.1260 -53.2429 332° Northwest  Level Estimated
Thu 11:57:00 PM -16.0327 -53.2940 332° Northwest  Level Estimated
Thu 11:58:00 PM -15.9394 -53.3452 332° Northwest  Level Estimated
Thu 11:59:00 PM -15.8461 -53.3963 332° Northwest  Level Estimated
Fri 12:00:00 AM -15.7527 -53.4473 332° Northwest  Level Estimated
Fri 12:01:00 AM -15.6593 -53.4983 332° Northwest  Level Estimated
Fri 12:02:00 AM -15.5660 -53.5493 332° Northwest  Level Estimated
Fri 12:03:00 AM -15.4726 -53.6002 332° Northwest  Level Estimated
Fri 12:04:00 AM -15.3792 -53.6510 332° Northwest  Level Estimated
Fri 12:05:00 AM -15.2858 -53.7018 332° Northwest  Level Estimated
Fri 12:06:00 AM -15.1924 -53.7526 332° Northwest  Level Estimated
Fri 12:07:00 AM -15.0990 -53.8033 332° Northwest  Level Estimated
Fri 12:08:00 AM -15.0055 -53.8540 332° Northwest  Level Estimated
Fri 12:09:00 AM -14.9121 -53.9046 332° Northwest  Level Estimated
Fri 12:10:00 AM -14.8186 -53.9552 332° Northwest  Level Estimated
Fri 12:11:00 AM -14.7251 -54.0057 332° Northwest  Level Estimated
Fri 12:12:00 AM -14.6316 -54.0563 332° Northwest  Level Estimated
Fri 12:13:00 AM -14.5382 -54.1067 332° Northwest  Level Estimated
Fri 12:14:00 AM -14.4447 -54.1571 332° Northwest  Level Estimated
Fri 12:15:00 AM -14.3511 -54.2075 332° Northwest  Level Estimated
Fri 12:16:00 AM -14.2576 -54.2578 332° Northwest  Level Estimated
Fri 12:17:00 AM -14.1641 -54.3081 332° Northwest  Level Estimated
Fri 12:18:00 AM -14.0705 -54.3584 332° Northwest  Level Estimated
Fri 12:19:00 AM -13.9770 -54.4086 332° Northwest  Level Estimated
Fri 12:20:00 AM -13.8834 -54.4587 333° Northwest  Level Estimated
Fri 12:21:00 AM -13.7898 -54.5089 333° Northwest  Level Estimated
Fri 12:22:00 AM -13.6962 -54.5589 333° Northwest  Level Estimated
Fri 12:23:00 AM -13.6026 -54.6090 333° Northwest  Level Estimated
Fri 12:24:00 AM -13.5090 -54.6590 333° Northwest  Level Estimated
Fri 12:25:00 AM -13.4154 -54.7090 333° Northwest  Level Estimated
Fri 12:26:00 AM -13.3218 -54.7589 333° Northwest  Level Estimated
Fri 12:27:00 AM -13.2281 -54.8088 333° Northwest  Level Estimated
Fri 12:28:00 AM -13.1345 -54.8586 333° Northwest  Level Estimated
Fri 12:29:00 AM -13.0408 -54.9084 333° Northwest  Level Estimated
Fri 12:30:00 AM -12.9471 -54.9582 333° Northwest  Level Estimated
Fri 12:31:00 AM -12.8535 -55.0079 333° Northwest  Level Estimated
Fri 12:32:00 AM -12.7598 -55.0577 333° Northwest  Level Estimated
Fri 12:33:00 AM -12.6661 -55.1073 333° Northwest  Level Estimated
Fri 12:34:00 AM -12.5724 -55.1569 333° Northwest  Level Estimated
Fri 12:35:00 AM -12.4787 -55.2065 333° Northwest  Level Estimated
Fri 12:36:00 AM -12.3849 -55.2561 333° Northwest  Level Estimated
Fri 12:37:00 AM -12.2912 -55.3056 333° Northwest  Level Estimated
Fri 12:38:00 AM -12.1975 -55.3551 333° Northwest  Level Estimated
Fri 12:39:00 AM -12.1037 -55.4045 333° Northwest  Level Estimated
Fri 12:40:00 AM -12.0100 -55.4539 333° Northwest  Level Estimated
Fri 12:41:00 AM -11.9162 -55.5033 333° Northwest  Level Estimated
Fri 12:42:00 AM -11.8224 -55.5527 333° Northwest  Level Estimated
Fri 12:43:00 AM -11.7287 -55.6020 333° Northwest  Level Estimated
Fri 12:44:00 AM -11.6349 -55.6513 333° Northwest  Level Estimated
Fri 12:45:00 AM -11.5411 -55.7005 333° Northwest  Level Estimated
Fri 12:46:00 AM -11.4473 -55.7497 333° Northwest  Level Estimated
Fri 12:47:00 AM -11.3534 -55.7989 333° Northwest  Level Estimated
Fri 12:48:00 AM -11.2596 -55.8480 333° Northwest  Level Estimated
Fri 12:49:00 AM -11.1658 -55.8972 333° Northwest  Level Estimated
Fri 12:50:00 AM -11.0719 -55.9463 333° Northwest  Level Estimated
Fri 12:51:00 AM -10.9781 -55.9953 333° Northwest  Level Estimated
Fri 12:52:00 AM -10.8842 -56.0443 333° Northwest  Level Estimated
Fri 12:53:00 AM -10.7904 -56.0933 333° Northwest  Level Estimated
Fri 12:54:00 AM -10.6965 -56.1423 333° Northwest  Level Estimated
Fri 12:55:00 AM -10.6026 -56.1912 333° Northwest  Level Estimated
Fri 12:56:00 AM -10.5087 -56.2401 333° Northwest  Level Estimated
Fri 12:57:00 AM -10.4148 -56.2890 333° Northwest  Level Estimated
Fri 12:58:00 AM -10.3209 -56.3378 333° Northwest  Level Estimated
Fri 12:59:00 AM -10.2270 -56.3866 333° Northwest  Level Estimated
Fri 01:00:00 AM -10.1331 -56.4354 333° Northwest  Level Estimated
Fri 01:01:00 AM -10.0392 -56.4841 333° Northwest  Level Estimated
Fri 01:02:00 AM -9.9453 -56.5329 333° Northwest  Level Estimated
Fri 01:03:00 AM -9.8513 -56.5816 333° Northwest  Level Estimated
Fri 01:04:00 AM -9.7574 -56.6302 333° Northwest  Level Estimated
Fri 01:05:00 AM -9.6634 -56.6789 333° Northwest  Level Estimated
Fri 01:06:00 AM -9.5695 -56.7275 333° Northwest  Level Estimated
Fri 01:07:00 AM -9.4755 -56.7761 333° Northwest  Level Estimated
Fri 01:08:00 AM -9.3815 -56.8246 333° Northwest  Level Estimated
Fri 01:09:00 AM -9.2875 -56.8732 333° Northwest  Level Estimated
Fri 01:10:00 AM -9.1936 -56.9217 333° Northwest  Level Estimated
Fri 01:11:00 AM -9.0996 -56.9702 333° Northwest  Level Estimated
Fri 01:12:00 AM -9.0056 -57.0186 333° Northwest  Level Estimated
Fri 01:13:00 AM -8.9116 -57.0671 333° Northwest  Level Estimated
Fri 01:14:00 AM -8.8176 -57.1155 333° Northwest  Level Estimated
Fri 01:15:00 AM -8.7235 -57.1639 333° Northwest  Level Estimated
Fri 01:16:00 AM -8.6295 -57.2122 333° Northwest  Level Estimated
Fri 01:17:00 AM -8.5355 -57.2606 333° Northwest  Level Estimated
Fri 01:18:00 AM -8.4415 -57.3089 333° Northwest  Level Estimated
Fri 01:19:00 AM -8.3474 -57.3572 333° Northwest  Level Estimated
Fri 01:20:00 AM -8.2534 -57.4054 333° Northwest  Level Estimated
Fri 01:21:00 AM -8.1593 -57.4537 333° Northwest  Level Estimated
Fri 01:22:00 AM -8.0653 -57.5019 333° Northwest  Level Estimated
Fri 01:23:00 AM -7.9712 -57.5501 333° Northwest  Level Estimated
Fri 01:24:00 AM -7.8771 -57.5982 333° Northwest  Level Estimated
Fri 01:25:00 AM -7.7831 -57.6464 333° Northwest  Level Estimated
Fri 01:26:00 AM -7.6890 -57.6945 333° Northwest  Level Estimated
Fri 01:27:00 AM -7.5949 -57.7426 333° Northwest  Level Estimated
Fri 01:28:00 AM -7.5008 -57.7907 333° Northwest  Level Estimated
Fri 01:29:00 AM -7.4067 -57.8388 333° Northwest  Level Estimated
Fri 01:30:00 AM -7.3126 -57.8868 333° Northwest  Level Estimated
Fri 01:31:00 AM -7.2185 -57.9349 333° Northwest  Level Estimated
Fri 01:32:00 AM -7.1244 -57.9829 333° Northwest  Level Estimated
Fri 01:33:00 AM -7.0303 -58.0309 333° Northwest  Level Estimated
Fri 01:34:00 AM -6.9361 -58.0788 333° Northwest  Level Estimated
Fri 01:35:00 AM -6.8420 -58.1268 333° Northwest  Level Estimated
Fri 01:36:00 AM -6.7479 -58.1747 333° Northwest  Level Estimated
Fri 01:37:00 AM -6.6537 -58.2226 333° Northwest  Level Estimated
Fri 01:38:00 AM -6.5596 -58.2705 333° Northwest  Level Estimated
Fri 01:39:00 AM -6.4655 -58.3184 333° Northwest  Level Estimated
Fri 01:40:00 AM -6.3713 -58.3662 333° Northwest  Level Estimated
Fri 01:41:00 AM -6.2772 -58.4141 333° Northwest  Level Estimated
Fri 01:41:50 AM -3.4330 -60.0900 333° Northwest 302 348 9,900  Level FlightAware ADS-B
Fri 01:42:00 AM -6.1830 -58.4619 333° Northwest  Level Estimated
Fri 01:42:10 AM -3.4100 -60.1020 332° Northwest 298 343 9,500  Level FlightAware ADS-B
Fri 01:42:36 AM -3.3760 -60.1200 332° Northwest 301 346 8,600 -1,773 Descending FlightAware ADS-B
Fri 01:42:54 AM -3.3550 -60.1310 332° Northwest 299 344 8,200 -1,313 Descending FlightAware ADS-B
Fri 01:43:08 AM -3.3370 -60.1410 331° Northwest 298 343 7,900 -692 Descending FlightAware ADS-B
Fri 01:43:46 AM -3.2950 -60.1630 332° Northwest 295 339 7,600 -1,500 Descending FlightAware ADS-B
Fri 01:44:04 AM -3.2700 -60.1760 333° Northwest 290 334 6,500 -2,550 Descending FlightAware ADS-B
Fri 01:44:26 AM -3.2440 -60.1890 333° Northwest 288 331 5,900 -1,714 Descending FlightAware ADS-B
Fri 01:44:32 AM -3.2350 -60.1930 336° Northwest 286 329 5,700 -1,714 Descending FlightAware ADS-B
Fri 01:44:40 AM -3.2250 -60.1950 349° North 283 326 5,500 -1,448 Descending FlightAware ADS-B
Fri 01:45:01 AM -3.1980 -60.2000 350° North 282 325 5,000 -1,579 Descending FlightAware ADS-B
Fri 01:45:18 AM -3.1760 -60.2040 350° North 280 322 4,500 -1,200 Descending FlightAware ADS-B
Fri 01:45:46 AM -3.1400 -60.2100 351° North 269 310 4,100 -750 Descending FlightAware ADS-B
Fri 01:46:06 AM -3.1160 -60.2150 348° North 255 293 3,900 -600 Descending FlightAware ADS-B
Fri 01:46:26 AM -3.0940 -60.2190 350° North 243 280 3,700 -750 Descending FlightAware ADS-B
Fri 01:46:46 AM -3.0710 -60.2230 350° North 234 269 3,400 -750 Descending FlightAware ADS-B
Fri 01:47:14 AM -3.0460 -60.2130 22° Northeast 214 246 3,100 -486 Descending FlightAware ADS-B
Fri 01:47:23 AM -3.0420 -60.2090 45° Northeast 212 244 3,100  Level FlightAware ADS-B
Fri 01:47:30 AM -3.0390 -60.2000 72° East 200 230 3,100  Level FlightAware ADS-B
Fri 01:47:34 AM -3.0380 -60.1970 72° East 192 221 3,100  Level FlightAware ADS-B
Fri 01:47:40 AM -3.0370 -60.1920 79° East 182 209 3,100 -643 Level FlightAware ADS-B
Fri 01:48:02 AM -3.0380 -60.1750 93° East 170 196 2,800 -977 Descending FlightAware ADS-B
Fri 01:48:23 AM -3.0390 -60.1580 93° East 165 190 2,400 -1,227 Descending FlightAware ADS-B
Fri 01:48:46 AM -3.0390 -60.1410 90° East 157 181 1,900 -1,116 Descending FlightAware ADS-B
Fri 01:49:06 AM -3.0380 -60.1260 86° East 151 174 1,600 -875 Descending FlightAware ADS-B
Fri 01:49:34 AM -3.0390 -60.1080 93° East 143 165 1,200 -737 Descending FlightAware ADS-B
Fri 01:50:03 AM -3.0390 -60.0890 90° East 144 166 900 -692 Descending FlightAware ADS-B
Fri 01:50:26 AM -3.0380 -60.0740 86° East 145 167 600 -360 Descending FlightAware ADS-B
Fri 01:50:53 AM -3.0380 -60.0590 90° East 145 167 600  Level FlightAware ADS-B

Login

Don't have an account? Register now (free) for customized features, flight alerts, and more!